createdAt,value
2018-11-01T00:00:56.755Z,100687.05
2018-11-01T00:03:24.446Z,100691.83
2018-11-01T00:05:52.180Z,100699.97
2018-11-01T00:08:20.222Z,100700.80
2018-11-01T00:10:47.954Z,100707.19
2018-11-01T00:13:16.612Z,100711.61
2018-11-01T00:15:44.333Z,100718.82
2018-11-01T00:18:12.058Z,100719.59
2018-11-01T00:20:39.777Z,100723.70
2018-11-01T00:23:07.518Z,100719.23
2018-11-01T00:25:35.247Z,100719.97
2018-11-01T00:28:02.962Z,100722.20
2018-11-01T00:30:30.694Z,100712.52
2018-11-01T00:32:58.398Z,100708.96
2018-11-01T00:35:26.133Z,100704.37
2018-11-01T00:37:53.857Z,100701.17
2018-11-01T00:40:21.578Z,100701.69
2018-11-01T00:42:49.323Z,100715.02
2018-11-01T00:45:17.047Z,100707.55
2018-11-01T00:47:44.802Z,100703.41
2018-11-01T00:50:13.799Z,100701.98
2018-11-01T00:52:41.945Z,100707.91
2018-11-01T00:55:10.754Z,100712.34
2018-11-01T00:57:38.886Z,100714.44
2018-11-01T01:00:09.106Z,100708.28
2018-11-01T01:02:36.817Z,100701.80
2018-11-01T01:05:05.443Z,100706.00
2018-11-01T01:07:33.183Z,100712.11
2018-11-01T01:10:00.924Z,100709.73
2018-11-01T01:12:28.687Z,100713.62
2018-11-01T01:14:56.458Z,100718.59
2018-11-01T01:17:24.174Z,100724.02
2018-11-01T01:19:52.010Z,100719.55
2018-11-01T01:22:19.745Z,100708.23
2018-11-01T01:24:47.502Z,100700.31
2018-11-01T01:27:15.266Z,100692.86
2018-11-01T01:29:42.989Z,100688.64
2018-11-01T01:32:10.794Z,100687.34
2018-11-01T01:34:38.544Z,100701.55
2018-11-01T01:37:06.382Z,100713.93
2018-11-01T01:39:34.139Z,100714.52
2018-11-01T01:42:01.861Z,100713.02
2018-11-01T01:44:29.577Z,100717.50
2018-11-01T01:46:57.315Z,100712.74
2018-11-01T01:49:25.298Z,100712.61
2018-11-01T01:51:53.028Z,100721.81
2018-11-01T01:54:20.731Z,100720.14
2018-11-01T01:56:53.879Z,100732.53
2018-11-01T01:59:21.602Z,100727.64
2018-11-01T02:01:49.318Z,100730.48
2018-11-01T02:04:17.029Z,100720.82
2018-11-01T02:06:44.758Z,100720.05
2018-11-01T02:09:13.031Z,100718.06
2018-11-01T02:11:42.263Z,100721.25
2018-11-01T02:14:09.982Z,100722.73
2018-11-01T02:16:37.760Z,100719.33
2018-11-01T02:19:06.050Z,100717.32
2018-11-01T02:21:33.818Z,100704.75
2018-11-01T02:24:01.557Z,100715.19
2018-11-01T02:26:29.394Z,100713.48
2018-11-01T02:28:57.156Z,100717.85
2018-11-01T02:31:24.994Z,100718.26
2018-11-01T02:33:52.722Z,100717.42
2018-11-01T02:36:20.452Z,100724.91
2018-11-01T02:38:48.330Z,100732.74
2018-11-01T02:41:15.987Z,100733.91
2018-11-01T02:43:43.711Z,100737.01
2018-11-01T02:46:11.430Z,100737.34
2018-11-01T02:48:39.199Z,100736.23
2018-11-01T02:51:06.954Z,100736.13
2018-11-01T02:53:34.704Z,100740.31
2018-11-01T02:56:02.441Z,100732.86
2018-11-01T02:58:30.164Z,100744.08
2018-11-01T03:00:57.902Z,100740.33
2018-11-01T03:03:25.624Z,100747.92
2018-11-01T03:05:53.337Z,100737.77
2018-11-01T03:08:21.095Z,100734.34
2018-11-01T03:10:48.806Z,100736.04
2018-11-01T03:13:16.523Z,100726.95
2018-11-01T03:15:44.235Z,100729.58
2018-11-01T03:18:11.967Z,100733.13
2018-11-01T03:20:39.703Z,100731.70
2018-11-01T03:23:07.443Z,100735.94
2018-11-01T03:25:35.257Z,100734.84
2018-11-01T03:28:02.992Z,100737.22
2018-11-01T03:30:30.721Z,100744.73
2018-11-01T03:32:58.455Z,100752.88
2018-11-01T03:35:26.170Z,100753.95
2018-11-01T03:37:53.898Z,100752.16
2018-11-01T03:40:21.620Z,100756.00
2018-11-01T03:42:49.341Z,100750.70
2018-11-01T03:45:17.075Z,100746.64
2018-11-01T03:47:44.830Z,100750.85
2018-11-01T03:50:12.579Z,100749.78
2018-11-01T03:52:40.318Z,100749.14
2018-11-01T03:55:09.415Z,100740.55
2018-11-01T03:57:37.140Z,100749.14
2018-11-01T04:00:07.925Z,100747.21
2018-11-01T04:02:35.652Z,100754.69
2018-11-01T04:05:03.483Z,100754.69
2018-11-01T04:07:31.195Z,100752.47
2018-11-01T04:09:58.923Z,100754.20
2018-11-01T04:12:26.658Z,100754.61
2018-11-01T04:14:54.444Z,100762.53
2018-11-01T04:17:22.115Z,100756.64
2018-11-01T04:19:49.928Z,100759.74
2018-11-01T04:22:17.644Z,100757.73
2018-11-01T04:24:45.352Z,100751.69
2018-11-01T04:27:13.075Z,100745.37
2018-11-01T04:29:40.787Z,100745.75
2018-11-01T04:32:08.574Z,100748.53
2018-11-01T04:34:36.290Z,100750.45
2018-11-01T04:37:04.016Z,100747.34
2018-11-01T04:39:31.794Z,100742.80
2018-11-01T04:41:59.594Z,100743.97
2018-11-01T04:44:27.320Z,100748.66
2018-11-01T04:46:55.063Z,100755.99
2018-11-01T04:49:22.853Z,100763.64
2018-11-01T04:51:50.606Z,100765.50
2018-11-01T04:54:18.325Z,100770.05
2018-11-01T04:56:46.066Z,100771.09
2018-11-01T04:59:13.787Z,100777.28
2018-11-01T05:01:41.529Z,100779.13
2018-11-01T05:04:15.982Z,100783.00
2018-11-01T05:06:43.744Z,100779.28
2018-11-01T05:09:11.450Z,100772.42
2018-11-01T05:11:39.175Z,100770.11
2018-11-01T05:14:06.891Z,100765.95
2018-11-01T05:16:34.666Z,100778.32
2018-11-01T05:19:02.435Z,100788.16
2018-11-01T05:21:30.157Z,100800.16
2018-11-01T05:24:00.455Z,100805.28
2018-11-01T05:26:28.591Z,100809.55
2018-11-01T05:28:56.303Z,100812.65
2018-11-01T05:31:24.011Z,100810.19
2018-11-01T05:33:51.723Z,100807.14
2018-11-01T05:36:19.451Z,100809.66
2018-11-01T05:38:47.174Z,100816.39
2018-11-01T05:41:14.903Z,100817.59
2018-11-01T05:43:42.624Z,100820.50
2018-11-01T05:46:10.382Z,100819.03
2018-11-01T05:48:38.111Z,100828.95
2018-11-01T05:51:05.863Z,100827.26
2018-11-01T05:53:33.583Z,100826.25
2018-11-01T05:56:01.343Z,100831.62
2018-11-01T05:58:29.067Z,100829.05
2018-11-01T06:00:56.807Z,100832.89
2018-11-01T06:03:24.527Z,100838.44
2018-11-01T06:05:52.284Z,100835.19
2018-11-01T06:08:22.551Z,100833.27
2018-11-01T06:10:50.296Z,100834.47
2018-11-01T06:13:18.041Z,100836.86
2018-11-01T06:15:45.782Z,100838.52
2018-11-01T06:18:13.558Z,100836.98
2018-11-01T06:20:41.331Z,100841.25
2018-11-01T06:23:16.195Z,100845.88
2018-11-01T06:25:43.977Z,100829.15
2018-11-01T06:28:11.795Z,100833.31
2018-11-01T06:30:39.541Z,100827.81
2018-11-01T06:33:07.305Z,100823.27
2018-11-01T06:35:38.292Z,100825.50
2018-11-01T06:38:06.486Z,100825.48
2018-11-01T06:40:34.229Z,100836.75
2018-11-01T06:43:02.399Z,100836.05
2018-11-01T06:45:30.192Z,100833.33
2018-11-01T06:47:57.935Z,100828.31
2018-11-01T06:50:25.685Z,100824.07
2018-11-01T06:52:53.427Z,100824.02
2018-11-01T06:55:21.217Z,100821.19
2018-11-01T06:57:49.691Z,100821.38
2018-11-01T07:00:17.410Z,100825.20
2018-11-01T07:02:45.154Z,100827.61
2018-11-01T07:05:12.912Z,100832.30
2018-11-01T07:07:40.658Z,100840.08
2018-11-01T07:10:10.632Z,100844.50
2018-11-01T07:12:38.378Z,100841.22
2018-11-01T07:15:07.416Z,100844.97
2018-11-01T07:17:35.452Z,100849.17
2018-11-01T07:20:03.195Z,100841.52
2018-11-01T07:22:30.918Z,100841.37
2018-11-01T07:24:58.681Z,100836.36
2018-11-01T07:27:26.559Z,100840.14
2018-11-01T07:29:54.291Z,100834.98
2018-11-01T07:32:22.071Z,100840.59
2018-11-01T07:34:49.806Z,100841.84
2018-11-01T07:37:17.560Z,100840.87
2018-11-01T07:39:45.291Z,100844.94
2018-11-01T07:42:13.023Z,100840.36
2018-11-01T07:44:40.755Z,100839.90
2018-11-01T07:47:08.487Z,100835.05
2018-11-01T07:49:36.224Z,100830.98
2018-11-01T07:52:04.062Z,100837.88
2018-11-01T07:54:31.798Z,100825.69
2018-11-01T07:56:59.598Z,100825.91
2018-11-01T07:59:27.350Z,100830.90
2018-11-01T08:01:55.089Z,100829.59
2018-11-01T08:04:22.820Z,100835.59
2018-11-01T08:06:50.554Z,100836.64
2018-11-01T08:09:18.356Z,100841.87
2018-11-01T08:11:46.173Z,100849.88
2018-11-01T08:14:13.879Z,100852.11
2018-11-01T08:16:41.630Z,100849.65
2018-11-01T08:19:09.376Z,100850.29
2018-11-01T08:21:37.110Z,100852.31
2018-11-01T08:24:05.061Z,100857.63
2018-11-01T08:26:32.801Z,100853.00
2018-11-01T08:29:00.574Z,100850.49
2018-11-01T08:31:28.328Z,100845.14
2018-11-01T08:33:56.463Z,100842.94
2018-11-01T08:36:24.786Z,100842.75
2018-11-01T08:38:52.565Z,100843.50
2018-11-01T08:41:20.307Z,100845.92
2018-11-01T08:43:48.047Z,100848.98
2018-11-01T08:46:15.823Z,100846.91
2018-11-01T08:48:43.590Z,100846.98
2018-11-01T08:51:12.257Z,100848.71
2018-11-01T08:53:39.991Z,100839.58
2018-11-01T08:56:07.766Z,100838.70
2018-11-01T08:58:35.474Z,100837.88
2018-11-01T09:01:03.235Z,100837.14
2018-11-01T09:03:30.981Z,100832.83
2018-11-01T09:05:58.721Z,100828.05
2018-11-01T09:08:26.467Z,100832.94
2018-11-01T09:10:54.205Z,100826.80
2018-11-01T09:13:22.083Z,100822.23
2018-11-01T09:15:49.774Z,100830.41
2018-11-01T09:18:17.553Z,100826.91
2018-11-01T09:20:45.282Z,100822.80
2018-11-01T09:23:13.051Z,100828.55
2018-11-01T09:25:40.804Z,100828.59
2018-11-01T09:28:08.590Z,100824.01
2018-11-01T09:30:36.366Z,100824.94
2018-11-01T09:33:04.195Z,100810.47
2018-11-01T09:35:31.989Z,100801.92
2018-11-01T09:37:59.714Z,100804.08
2018-11-01T09:40:27.459Z,100793.20
2018-11-01T09:42:55.201Z,100793.95
2018-11-01T09:45:22.946Z,100796.77
2018-11-01T09:47:50.869Z,100796.58
2018-11-01T09:50:18.530Z,100788.72
2018-11-01T09:52:46.307Z,100790.55
2018-11-01T09:55:14.062Z,100787.14
2018-11-01T09:57:41.823Z,100789.16
2018-11-01T10:00:11.174Z,100783.73
2018-11-01T10:02:38.966Z,100783.14
2018-11-01T10:05:07.591Z,100781.56
2018-11-01T10:07:35.421Z,100780.94
2018-11-01T10:10:03.424Z,100786.10
2018-11-01T10:12:31.164Z,100777.20
2018-11-01T10:14:58.990Z,100772.42
2018-11-01T10:17:27.022Z,100773.67
2018-11-01T10:19:54.487Z,100768.73
2018-11-01T10:22:22.337Z,100769.77
2018-11-01T10:24:50.197Z,100773.45
2018-11-01T10:27:19.516Z,100767.89
2018-11-01T10:29:45.684Z,100771.77
2018-11-01T10:32:13.419Z,100766.30
2018-11-01T10:34:41.196Z,100772.45
2018-11-01T10:37:08.959Z,100767.30
2018-11-01T10:39:36.679Z,100768.13
2018-11-01T10:42:04.750Z,100762.36
2018-11-01T10:44:32.481Z,100759.14
2018-11-01T10:47:00.249Z,100756.56
2018-11-01T10:49:27.995Z,100752.56
2018-11-01T10:51:55.735Z,100757.05
2018-11-01T10:54:23.695Z,100750.57
2018-11-01T10:56:51.338Z,100747.44
2018-11-01T10:59:19.195Z,100736.77
2018-11-01T11:01:52.489Z,100740.94
2018-11-01T11:04:20.251Z,100730.09
2018-11-01T11:06:47.958Z,100719.23
2018-11-01T11:09:15.695Z,100713.41
2018-11-01T11:11:43.475Z,100718.28
2018-11-01T11:14:11.513Z,100708.23
2018-11-01T11:16:39.270Z,100712.59
2018-11-01T11:19:07.031Z,100711.36
2018-11-01T11:21:34.798Z,100711.27
2018-11-01T11:24:02.627Z,100713.22
2018-11-01T11:26:30.378Z,100714.87
2018-11-01T11:28:58.246Z,100710.97
2018-11-01T11:31:25.994Z,100712.32
2018-11-01T11:33:54.035Z,100700.28
2018-11-01T11:36:21.902Z,100706.22
2018-11-01T11:38:49.670Z,100699.38
2018-11-01T11:41:17.427Z,100699.02
2018-11-01T11:43:45.167Z,100700.81
2018-11-01T11:46:12.947Z,100696.05
2018-11-01T11:48:40.726Z,100697.26
2018-11-01T11:51:08.459Z,100697.77
2018-11-01T11:53:36.210Z,100698.51
2018-11-01T11:56:03.972Z,100699.64
2018-11-01T11:58:31.710Z,100695.97
2018-11-01T12:00:59.531Z,100691.34
2018-11-01T12:03:27.288Z,100697.76
2018-11-01T12:05:55.334Z,100695.94
2018-11-01T12:08:23.034Z,100686.73
2018-11-01T12:10:50.775Z,100691.47
2018-11-01T12:13:18.502Z,100682.47
2018-11-01T12:15:46.280Z,100684.41
2018-11-01T12:18:14.026Z,100684.28
2018-11-01T12:20:41.779Z,100674.34
2018-11-01T12:23:09.543Z,100673.25
2018-11-01T12:25:37.266Z,100674.20
2018-11-01T12:28:05.222Z,100673.83
2018-11-01T12:30:32.957Z,100666.55
2018-11-01T12:33:00.703Z,100668.24
2018-11-01T12:35:28.513Z,100669.20
2018-11-01T12:37:56.251Z,100668.11
2018-11-01T12:40:23.994Z,100664.23
2018-11-01T12:42:51.714Z,100668.36
2018-11-01T12:45:19.446Z,100672.88
2018-11-01T12:47:47.176Z,100679.62
2018-11-01T12:50:15.075Z,100683.20
2018-11-01T12:52:42.751Z,100678.35
2018-11-01T12:55:10.828Z,100671.09
2018-11-01T12:57:38.611Z,100674.83
2018-11-01T13:00:07.641Z,100677.52
2018-11-01T13:02:35.411Z,100671.17
2018-11-01T13:05:03.163Z,100667.14
2018-11-01T13:07:31.002Z,100670.05
2018-11-01T13:09:58.751Z,100674.11
2018-11-01T13:12:27.130Z,100674.99
2018-11-01T13:14:55.235Z,100678.22
2018-11-01T13:17:23.541Z,100681.08
2018-11-01T13:19:51.591Z,100678.33
2018-11-01T13:22:19.667Z,100677.46
2018-11-01T13:24:47.761Z,100674.16
2018-11-01T13:27:15.861Z,100677.48
2018-11-01T13:29:43.666Z,100673.56
2018-11-01T13:32:11.428Z,100665.48
2018-11-01T13:34:39.200Z,100662.42
2018-11-01T13:37:07.022Z,100665.54
2018-11-01T13:39:34.829Z,100659.42
2018-11-01T13:42:02.523Z,100667.82
2018-11-01T13:44:30.264Z,100672.94
2018-11-01T13:46:58.055Z,100672.84
2018-11-01T13:49:25.804Z,100672.96
2018-11-01T13:51:53.523Z,100673.55
2018-11-01T13:54:21.294Z,100673.63
2018-11-01T13:56:49.076Z,100671.81
2018-11-01T13:59:16.819Z,100680.09
2018-11-01T14:01:44.611Z,100682.52
2018-11-01T14:04:12.347Z,100682.33
2018-11-01T14:06:40.080Z,100677.35
2018-11-01T14:09:08.586Z,100672.28
2018-11-01T14:11:36.730Z,100667.56
2018-11-01T14:14:05.376Z,100673.06
2018-11-01T14:16:32.810Z,100675.07
2018-11-01T14:19:00.666Z,100673.78
2018-11-01T14:21:28.436Z,100669.50
2018-11-01T14:23:56.221Z,100672.05
2018-11-01T14:26:23.940Z,100671.39
2018-11-01T14:28:52.339Z,100669.16
2018-11-01T14:31:20.144Z,100667.63
2018-11-01T14:33:47.907Z,100676.70
2018-11-01T14:36:15.626Z,100670.73
2018-11-01T14:38:43.367Z,100677.33
2018-11-01T14:41:11.099Z,100664.53
2018-11-01T14:43:38.838Z,100662.88
2018-11-01T14:46:06.602Z,100662.86
2018-11-01T14:48:34.372Z,100664.45
2018-11-01T14:51:02.170Z,100666.51
2018-11-01T14:53:30.913Z,100665.80
2018-11-01T14:55:58.930Z,100655.92
2018-11-01T14:58:26.978Z,100654.95
2018-11-01T15:00:53.262Z,100654.22
2018-11-01T15:03:21.082Z,100649.59
2018-11-01T15:05:48.842Z,100658.30
2018-11-01T15:08:16.590Z,100666.30
2018-11-01T15:10:44.328Z,100671.33
2018-11-01T15:13:12.168Z,100683.16
2018-11-01T15:15:39.856Z,100688.55
2018-11-01T15:18:07.767Z,100688.53
2018-11-01T15:20:35.488Z,100680.52
2018-11-01T15:23:03.293Z,100688.77
2018-11-01T15:25:31.083Z,100687.15
2018-11-01T15:27:58.831Z,100698.84
2018-11-01T15:30:26.560Z,100699.65
2018-11-01T15:32:54.291Z,100702.39
2018-11-01T15:35:22.067Z,100698.05
2018-11-01T15:37:49.841Z,100700.52
2018-11-01T15:40:17.611Z,100699.28
2018-11-01T15:42:45.410Z,100702.80
2018-11-01T15:45:13.958Z,100702.34
2018-11-01T15:47:42.151Z,100702.96
2018-11-01T15:50:10.966Z,100708.72
2018-11-01T15:52:38.715Z,100711.94
2018-11-01T15:55:07.233Z,100716.94
2018-11-01T15:57:35.457Z,100726.18
2018-11-01T16:00:03.447Z,100717.42
2018-11-01T16:02:31.233Z,100720.24
2018-11-01T16:04:58.994Z,100723.25
2018-11-01T16:07:26.819Z,100725.22
2018-11-01T16:09:54.597Z,100723.55
2018-11-01T16:12:22.458Z,100721.37
2018-11-01T16:14:50.186Z,100717.86
2018-11-01T16:17:17.966Z,100727.84
2018-11-01T16:19:45.774Z,100730.87
2018-11-01T16:22:13.486Z,100725.94
2018-11-01T16:24:41.225Z,100724.23
2018-11-01T16:27:09.125Z,100728.80
2018-11-01T16:29:36.779Z,100728.92
2018-11-01T16:32:04.780Z,100734.58
2018-11-01T16:34:32.559Z,100737.01
2018-11-01T16:37:00.362Z,100740.39
2018-11-01T16:39:28.052Z,100739.87
2018-11-01T16:41:55.882Z,100743.28
2018-11-01T16:44:23.597Z,100738.10
2018-11-01T16:46:51.331Z,100741.09
2018-11-01T16:49:19.096Z,100743.31
2018-11-01T16:51:46.823Z,100744.75
2018-11-01T16:54:14.632Z,100751.71
2018-11-01T16:56:42.359Z,100759.59
2018-11-01T16:59:10.598Z,100755.37
2018-11-01T17:01:38.335Z,100758.98
2018-11-01T17:04:06.491Z,100757.20
2018-11-01T17:06:34.303Z,100761.93
2018-11-01T17:09:02.047Z,100762.99
2018-11-01T17:11:29.814Z,100765.06
2018-11-01T17:13:57.570Z,100759.78
2018-11-01T17:16:25.319Z,100760.55
2018-11-01T17:18:54.046Z,100760.68
2018-11-01T17:21:21.803Z,100760.64
2018-11-01T17:23:49.547Z,100764.42
2018-11-01T17:26:17.302Z,100763.11
2018-11-01T17:28:45.090Z,100773.42
2018-11-01T17:31:12.822Z,100771.37
2018-11-01T17:33:40.547Z,100775.98
2018-11-01T17:36:08.435Z,100768.55
2018-11-01T17:38:36.215Z,100766.88
2018-11-01T17:41:04.148Z,100775.66
2018-11-01T17:43:31.912Z,100779.00
2018-11-01T17:45:59.695Z,100781.17
2018-11-01T17:48:27.435Z,100780.30
2018-11-01T17:50:55.173Z,100782.45
2018-11-01T17:53:22.926Z,100786.72
2018-11-01T17:55:50.715Z,100789.77
2018-11-01T17:58:18.501Z,100788.11
2018-11-01T18:00:46.275Z,100782.50
2018-11-01T18:03:14.141Z,100793.88
2018-11-01T18:05:41.891Z,100794.05
2018-11-01T18:08:09.720Z,100786.05
2018-11-01T18:10:37.545Z,100787.97
2018-11-01T18:13:05.526Z,100796.55
2018-11-01T18:15:33.529Z,100800.76
2018-11-01T18:18:01.305Z,100793.48
2018-11-01T18:20:29.054Z,100798.46
2018-11-01T18:22:56.817Z,100802.84
2018-11-01T18:25:24.616Z,100801.71
2018-11-01T18:27:52.416Z,100794.61
2018-11-01T18:30:20.228Z,100796.89
2018-11-01T18:32:48.197Z,100794.60
2018-11-01T18:35:15.743Z,100796.78
2018-11-01T18:37:43.498Z,100804.05
2018-11-01T18:40:17.072Z,100806.50
2018-11-01T18:42:44.855Z,100815.25
2018-11-01T18:45:13.814Z,100815.73
2018-11-01T18:47:42.186Z,100811.83
2018-11-01T18:50:11.583Z,100817.45
2018-11-01T18:52:39.483Z,100817.15
2018-11-01T18:55:08.493Z,100820.29
2018-11-01T18:57:36.269Z,100824.28
2018-11-01T19:00:04.600Z,100829.53
2018-11-01T19:02:32.331Z,100826.38
2018-11-01T19:05:00.075Z,100836.08
2018-11-01T19:07:27.846Z,100833.13
2018-11-01T19:09:55.607Z,100825.14
2018-11-01T19:12:23.391Z,100827.98
2018-11-01T19:14:51.150Z,100834.46
2018-11-01T19:17:18.927Z,100832.95
2018-11-01T19:19:46.677Z,100829.71
2018-11-01T19:22:14.440Z,100827.98
2018-11-01T19:24:42.168Z,100824.86
2018-11-01T19:27:10.191Z,100823.70
2018-11-01T19:29:37.683Z,100825.53
2018-11-01T19:32:05.790Z,100829.12
2018-11-01T19:34:33.716Z,100824.20
2018-11-01T19:37:01.286Z,100823.05
2018-11-01T19:39:29.042Z,100828.94
2018-11-01T19:41:56.770Z,100826.75
2018-11-01T19:44:24.501Z,100835.84
2018-11-01T19:46:52.291Z,100831.02
2018-11-01T19:49:20.026Z,100832.80
2018-11-01T19:51:47.783Z,100840.13
2018-11-01T19:54:15.630Z,100843.64
2018-11-01T19:56:43.291Z,100844.38
2018-11-01T19:59:11.034Z,100847.25
2018-11-01T20:01:38.915Z,100849.23
2018-11-01T20:04:06.730Z,100848.94
2018-11-01T20:06:34.462Z,100847.02
2018-11-01T20:09:02.385Z,100845.21
2018-11-01T20:11:30.062Z,100843.96
2018-11-01T20:13:57.804Z,100851.00
2018-11-01T20:16:25.558Z,100853.81
2018-11-01T20:18:53.350Z,100857.73
2018-11-01T20:21:21.170Z,100848.48
2018-11-01T20:23:48.918Z,100844.13
2018-11-01T20:26:16.678Z,100841.58
2018-11-01T20:28:44.473Z,100842.41
2018-11-01T20:31:12.245Z,100847.80
2018-11-01T20:33:46.571Z,100845.52
2018-11-01T20:36:14.263Z,100846.73
2018-11-01T20:38:42.126Z,100840.39
2018-11-01T20:41:09.809Z,100833.78
2018-11-01T20:43:37.651Z,100837.87
2018-11-01T20:46:05.400Z,100840.92
2018-11-01T20:48:33.270Z,100839.90
2018-11-01T20:51:01.006Z,100840.63
2018-11-01T20:53:28.760Z,100840.98
2018-11-01T20:55:56.499Z,100844.19
2018-11-01T20:58:24.246Z,100834.53
2018-11-01T21:00:52.174Z,100848.13
2018-11-01T21:03:19.925Z,100841.41
2018-11-01T21:05:47.687Z,100841.47
2018-11-01T21:08:15.606Z,100841.62
2018-11-01T21:10:43.418Z,100850.58
2018-11-01T21:13:11.116Z,100851.42
2018-11-01T21:15:38.951Z,100853.48
2018-11-01T21:18:06.688Z,100852.86
2018-11-01T21:20:35.000Z,100853.16
2018-11-01T21:23:02.751Z,100852.88
2018-11-01T21:25:30.487Z,100855.05
2018-11-01T21:27:58.227Z,100847.62
2018-11-01T21:30:25.974Z,100855.09
2018-11-01T21:32:53.725Z,100861.30
2018-11-01T21:35:21.589Z,100864.77
2018-11-01T21:37:49.234Z,100864.28
2018-11-01T21:40:16.975Z,100859.09
2018-11-01T21:42:44.860Z,100864.09
2018-11-01T21:45:13.428Z,100860.77
2018-11-01T21:47:41.724Z,100853.86
2018-11-01T21:50:09.974Z,100851.21
2018-11-01T21:52:37.741Z,100845.28
2018-11-01T21:55:06.111Z,100848.08
2018-11-01T21:57:33.845Z,100851.75
2018-11-01T22:00:02.404Z,100854.19
2018-11-01T22:02:30.251Z,100862.69
2018-11-01T22:04:57.980Z,100866.05
2018-11-01T22:07:25.742Z,100871.26
2018-11-01T22:09:53.646Z,100870.14
2018-11-01T22:12:21.278Z,100863.47
2018-11-01T22:14:49.027Z,100856.55
2018-11-01T22:17:16.796Z,100856.61
2018-11-01T22:19:44.535Z,100853.98
2018-11-01T22:22:12.275Z,100855.38
2018-11-01T22:24:40.023Z,100853.55
2018-11-01T22:27:07.827Z,100862.31
2018-11-01T22:29:35.598Z,100858.52
2018-11-01T22:32:03.363Z,100853.09
2018-11-01T22:34:31.790Z,100849.79
2018-11-01T22:36:59.515Z,100852.55
2018-11-01T22:39:27.277Z,100853.80
2018-11-01T22:41:55.043Z,100857.13
2018-11-01T22:44:22.799Z,100853.72
2018-11-01T22:46:50.623Z,100857.75
2018-11-01T22:49:18.404Z,100850.70
2018-11-01T22:51:46.152Z,100857.38
2018-11-01T22:54:13.887Z,100862.44
2018-11-01T22:56:41.636Z,100853.77
2018-11-01T22:59:09.503Z,100855.56
2018-11-01T23:01:37.442Z,100858.65
2018-11-01T23:04:05.442Z,100861.79
2018-11-01T23:06:33.186Z,100858.00
2018-11-01T23:09:00.929Z,100862.13
2018-11-01T23:11:29.519Z,100858.28
2018-11-01T23:13:57.294Z,100850.66
2018-11-01T23:16:25.078Z,100858.13
2018-11-01T23:18:52.862Z,100852.92
2018-11-01T23:21:20.599Z,100852.08
2018-11-01T23:23:48.343Z,100857.89
2018-11-01T23:26:16.096Z,100856.97
2018-11-01T23:28:43.873Z,100855.82
2018-11-01T23:31:11.603Z,100857.33
2018-11-01T23:33:39.389Z,100860.92
2018-11-01T23:36:06.529Z,100861.23
2018-11-01T23:38:39.816Z,100865.83
2018-11-01T23:41:12.971Z,100859.66
2018-11-01T23:43:46.162Z,100859.45
2018-11-01T23:46:19.499Z,100855.86
2018-11-01T23:48:50.071Z,100854.32
2018-11-01T23:51:18.727Z,100861.32
2018-11-01T23:53:48.390Z,100864.93
2018-11-01T23:56:16.318Z,100871.45
2018-11-01T23:58:44.111Z,100868.43
